createdAt,value
2019-02-08T00:04:02.304Z,100907.42
2019-02-08T00:09:08.832Z,100914.28
2019-02-08T00:14:13.189Z,100909.30
2019-02-08T00:19:17.285Z,100926.91
2019-02-08T00:24:21.393Z,100923.42
2019-02-08T00:29:25.735Z,100925.52
2019-02-08T00:34:29.776Z,100928.73
2019-02-08T00:39:33.829Z,100935.43
2019-02-08T00:44:37.942Z,100932.69
2019-02-08T00:49:41.965Z,100927.64
2019-02-08T00:54:46.264Z,100932.61
2019-02-08T00:59:51.197Z,100937.88
2019-02-08T01:04:55.327Z,100937.83
2019-02-08T01:09:59.607Z,100942.31
2019-02-08T01:15:04.482Z,100948.30
2019-02-08T01:20:11.449Z,100957.47
2019-02-08T01:25:17.754Z,100960.17
2019-02-08T01:30:26.625Z,100959.98
2019-02-08T01:35:30.858Z,100961.12
2019-02-08T01:40:36.582Z,100963.14
2019-02-08T01:45:40.738Z,100958.96
2019-02-08T01:50:45.175Z,100958.48
2019-02-08T01:55:51.265Z,100960.92
2019-02-08T02:00:55.838Z,100960.77
2019-02-08T02:06:00.028Z,100970.61
2019-02-08T02:11:04.340Z,100969.87
2019-02-08T02:16:08.405Z,100981.58
2019-02-08T02:21:12.513Z,100981.38
2019-02-08T02:26:16.511Z,100988.59
2019-02-08T02:31:20.587Z,100990.12
2019-02-08T02:36:24.657Z,100996.97
2019-02-08T02:41:28.698Z,101002.28
2019-02-08T02:46:32.732Z,100999.63
2019-02-08T02:51:36.808Z,101002.95
2019-02-08T02:56:41.191Z,100999.56
2019-02-08T03:01:45.232Z,101000.03
2019-02-08T03:06:49.233Z,100997.92
2019-02-08T03:11:53.257Z,100990.48
2019-02-08T03:16:57.342Z,100995.25
2019-02-08T03:22:01.677Z,100993.37
2019-02-08T03:27:06.067Z,100984.03
2019-02-08T03:32:10.362Z,100993.66
2019-02-08T03:37:14.416Z,100996.11
2019-02-08T03:42:18.475Z,100991.58
2019-02-08T03:47:22.900Z,101000.16
2019-02-08T03:52:26.921Z,101006.19
2019-02-08T03:57:30.962Z,101011.34
2019-02-08T04:02:35.131Z,101010.77
2019-02-08T04:07:39.855Z,101016.69
2019-02-08T04:12:43.884Z,101028.08
2019-02-08T04:17:48.143Z,101029.92
2019-02-08T04:22:52.493Z,101037.10
2019-02-08T04:27:56.569Z,101033.02
2019-02-08T04:33:01.261Z,101041.69
2019-02-08T04:38:05.283Z,101047.34
2019-02-08T04:43:10.642Z,101052.88
2019-02-08T04:48:14.878Z,101055.83
2019-02-08T04:53:18.943Z,101055.07
2019-02-08T04:58:23.308Z,101060.56
2019-02-08T05:03:27.380Z,101056.55
2019-02-08T05:08:31.397Z,101062.52
2019-02-08T05:13:35.557Z,101057.39
2019-02-08T05:18:39.628Z,101054.81
2019-02-08T05:23:43.856Z,101056.14
2019-02-08T05:28:48.037Z,101065.08
2019-02-08T05:33:52.108Z,101065.84
2019-02-08T05:38:56.763Z,101064.91
2019-02-08T05:44:00.848Z,101063.77
2019-02-08T05:49:05.046Z,101064.52
2019-02-08T05:54:09.195Z,101062.45
2019-02-08T05:59:13.391Z,101062.36
2019-02-08T06:04:17.519Z,101060.09
2019-02-08T06:09:21.588Z,101067.09
2019-02-08T06:14:25.659Z,101070.83
2019-02-08T06:19:29.690Z,101066.84
2019-02-08T06:24:33.795Z,101073.10
2019-02-08T06:29:37.877Z,101076.05
2019-02-08T06:34:41.905Z,101074.39
2019-02-08T06:39:46.293Z,101080.95
2019-02-08T06:44:50.370Z,101082.67
2019-02-08T06:49:54.505Z,101086.70
2019-02-08T06:54:58.605Z,101098.06
2019-02-08T07:00:02.822Z,101099.96
2019-02-08T07:05:07.504Z,101104.14
2019-02-08T07:10:11.739Z,101111.93
2019-02-08T07:15:15.831Z,101111.20
2019-02-08T07:20:19.893Z,101115.06
2019-02-08T07:25:24.044Z,101109.39
2019-02-08T07:30:36.841Z,101110.03
2019-02-08T07:35:40.983Z,101113.04
2019-02-08T07:40:50.057Z,101125.64
2019-02-08T07:45:57.891Z,101125.28
2019-02-08T07:51:01.889Z,101134.02
2019-02-08T07:56:06.041Z,101139.95
2019-02-08T08:01:10.665Z,101140.73
2019-02-08T08:06:14.876Z,101131.14
2019-02-08T08:11:18.891Z,101136.89
2019-02-08T08:16:22.906Z,101139.41
2019-02-08T08:21:27.165Z,101141.83
2019-02-08T08:26:31.714Z,101141.58
2019-02-08T08:31:38.170Z,101138.58
2019-02-08T08:37:36.861Z,101143.79
2019-02-08T08:42:55.591Z,101136.83
2019-02-08T08:48:36.278Z,101135.71
2019-02-08T08:54:07.907Z,101140.53
2019-02-08T09:00:08.884Z,101147.38
2019-02-08T09:05:47.587Z,101138.79
2019-02-08T09:11:14.194Z,101136.55
2019-02-08T09:17:03.491Z,101133.38
2019-02-08T09:22:50.205Z,101133.13
2019-02-08T09:29:05.471Z,101131.08
2019-02-08T09:34:46.129Z,101116.80
2019-02-08T09:40:29.406Z,101117.09
2019-02-08T09:46:12.648Z,101115.21
2019-02-08T09:51:52.006Z,101102.19
2019-02-08T09:57:11.483Z,101096.15
2019-02-08T10:03:05.297Z,101104.98
2019-02-08T10:08:43.533Z,101104.59
2019-02-08T10:14:23.594Z,101110.97
2019-02-08T10:20:06.472Z,101112.33
2019-02-08T10:26:05.675Z,101109.12
2019-02-08T10:31:42.431Z,101095.70
2019-02-08T10:37:22.532Z,101089.66
2019-02-08T10:42:57.475Z,101101.87
2019-02-08T10:48:34.692Z,101090.50
2019-02-08T10:54:03.878Z,101087.95
2019-02-08T10:59:58.061Z,101089.56
2019-02-08T11:05:43.268Z,101082.66
2019-02-08T11:11:37.465Z,101069.97
2019-02-08T11:17:18.596Z,101071.19
2019-02-08T11:22:22.794Z,101056.16
2019-02-08T11:27:26.891Z,101053.59
2019-02-08T11:32:42.986Z,101045.31
2019-02-08T11:37:37.062Z,101047.33
2019-02-08T11:42:43.134Z,101035.94
2019-02-08T11:47:47.269Z,101036.13
2019-02-08T11:52:51.322Z,101041.86
2019-02-08T11:57:55.386Z,101040.50
2019-02-08T12:02:59.424Z,101046.61
2019-02-08T12:08:03.621Z,101030.44
2019-02-08T12:13:07.677Z,101027.73
2019-02-08T12:18:11.905Z,101030.35
2019-02-08T12:23:15.984Z,101010.98
2019-02-08T12:28:19.999Z,101041.59
2019-02-08T12:33:24.024Z,101015.56
2019-02-08T12:38:28.075Z,101014.07
2019-02-08T12:43:32.314Z,101011.70
2019-02-08T12:48:37.362Z,101005.09
2019-02-08T12:53:41.722Z,101003.45
2019-02-08T12:58:45.802Z,100984.54
2019-02-08T13:03:49.893Z,100984.54
2019-02-08T13:08:54.017Z,100974.84
2019-02-08T13:13:58.116Z,100960.89
2019-02-08T13:19:02.116Z,100960.89
2019-02-08T13:24:06.142Z,100965.46
2019-02-08T13:29:10.207Z,100953.56
2019-02-08T13:34:14.280Z,100952.49
2019-02-08T13:39:18.339Z,100960.17
2019-02-08T13:44:22.417Z,100948.52
2019-02-08T13:49:26.510Z,100954.70
2019-02-08T13:54:30.616Z,100956.48
2019-02-08T13:59:34.647Z,100957.84
2019-02-08T14:04:39.275Z,100957.84
2019-02-08T14:09:46.630Z,100962.98
2019-02-08T14:14:52.335Z,100958.83
2019-02-08T14:19:58.025Z,100943.24
2019-02-08T14:25:02.386Z,100936.36
2019-02-08T14:30:17.138Z,100932.48
2019-02-08T14:35:22.423Z,100913.11
2019-02-08T14:40:28.596Z,100913.11
2019-02-08T14:45:38.637Z,100919.84
2019-02-08T14:50:44.622Z,100920.38
2019-02-08T14:55:51.361Z,100911.64
2019-02-08T15:00:57.946Z,100909.45
2019-02-08T15:06:02.316Z,100912.30
2019-02-08T15:11:06.520Z,100920.41
2019-02-08T15:16:10.679Z,100909.94
2019-02-08T15:21:14.988Z,100897.73
2019-02-08T15:26:19.416Z,100888.28
2019-02-08T15:31:23.605Z,100881.73
2019-02-08T15:36:27.688Z,100889.36
2019-02-08T15:41:32.020Z,100898.34
2019-02-08T15:46:36.093Z,100883.92
2019-02-08T15:51:40.140Z,100877.77
2019-02-08T15:56:44.227Z,100870.73
2019-02-08T16:01:49.963Z,100871.86
2019-02-08T16:06:54.052Z,100876.19
2019-02-08T16:11:58.117Z,100875.28
2019-02-08T16:17:02.272Z,100874.83
2019-02-08T16:22:06.287Z,100878.03
2019-02-08T16:27:10.289Z,100876.67
2019-02-08T16:32:14.411Z,100868.71
2019-02-08T16:37:18.478Z,100869.66
2019-02-08T16:42:22.564Z,100870.64
2019-02-08T16:47:26.599Z,100866.68
2019-02-08T16:52:30.828Z,100856.98
2019-02-08T16:57:34.889Z,100847.58
2019-02-08T17:02:38.896Z,100848.06
2019-02-08T17:07:42.905Z,100836.13
2019-02-08T17:12:47.190Z,100829.52
2019-02-08T17:17:51.434Z,100830.84
2019-02-08T17:22:55.585Z,100823.61
2019-02-08T17:27:59.998Z,100819.27
2019-02-08T17:33:04.786Z,100812.86
2019-02-08T17:38:08.985Z,100815.53
2019-02-08T17:43:13.041Z,100807.98
2019-02-08T17:48:17.093Z,100804.72
2019-02-08T17:53:21.152Z,100798.59
2019-02-08T17:58:25.186Z,100793.67
2019-02-08T18:03:31.300Z,100786.58
2019-02-08T18:08:35.449Z,100779.81
2019-02-08T18:13:39.467Z,100774.47
2019-02-08T18:18:43.472Z,100778.77
2019-02-08T18:23:47.520Z,100771.41
2019-02-08T18:28:52.031Z,100773.33
2019-02-08T18:33:59.859Z,100760.67
2019-02-08T18:39:07.392Z,100755.73
2019-02-08T18:44:12.217Z,100749.51
2019-02-08T18:49:16.213Z,100744.14
2019-02-08T18:54:20.340Z,100724.52
2019-02-08T18:59:25.758Z,100714.58
2019-02-08T19:04:31.349Z,100712.98
2019-02-08T19:09:37.840Z,100718.11
2019-02-08T19:14:42.547Z,100708.81
2019-02-08T19:19:48.040Z,100699.67
2019-02-08T19:24:58.359Z,100687.48
2019-02-08T19:30:05.371Z,100682.47
2019-02-08T19:35:10.191Z,100673.66
2019-02-08T19:40:17.711Z,100669.55
2019-02-08T19:45:22.727Z,100667.44
2019-02-08T19:50:32.934Z,100664.13
2019-02-08T19:55:38.850Z,100654.09
2019-02-08T20:00:43.296Z,100659.53
2019-02-08T20:05:47.349Z,100646.73
2019-02-08T20:10:52.441Z,100635.21
2019-02-08T20:15:56.900Z,100629.77
2019-02-08T20:21:01.435Z,100630.97
2019-02-08T20:26:06.745Z,100632.61
2019-02-08T20:31:10.858Z,100626.39
2019-02-08T20:36:14.934Z,100630.67
2019-02-08T20:41:19.191Z,100604.58
2019-02-08T20:46:23.269Z,100585.08
2019-02-08T20:51:27.412Z,100579.92
2019-02-08T20:56:31.698Z,100580.02
2019-02-08T21:01:36.040Z,100587.71
2019-02-08T21:06:40.143Z,100589.60
2019-02-08T21:11:44.218Z,100581.67
2019-02-08T21:16:48.284Z,100577.17
2019-02-08T21:21:52.400Z,100576.36
2019-02-08T21:26:56.669Z,100571.80
2019-02-08T21:32:00.726Z,100556.72
2019-02-08T21:37:04.983Z,100542.41
2019-02-08T21:42:09.036Z,100534.03
2019-02-08T21:47:13.145Z,100530.66
2019-02-08T21:52:17.285Z,100530.18
2019-02-08T21:57:21.329Z,100524.75
2019-02-08T22:02:25.371Z,100509.86
2019-02-08T22:07:29.610Z,100498.69
2019-02-08T22:12:33.842Z,100493.03
2019-02-08T22:17:38.030Z,100485.59
2019-02-08T22:22:42.418Z,100475.96
2019-02-08T22:27:46.516Z,100474.70
2019-02-08T22:32:51.904Z,100470.10
2019-02-08T22:37:55.934Z,100464.58
2019-02-08T22:42:59.987Z,100460.40
2019-02-08T22:48:04.755Z,100450.47
2019-02-08T22:53:09.370Z,100443.77
2019-02-08T22:58:13.545Z,100440.09
2019-02-08T23:03:17.970Z,100443.00
2019-02-08T23:08:22.040Z,100429.47
2019-02-08T23:13:26.390Z,100423.73
2019-02-08T23:18:30.506Z,100416.09
2019-02-08T23:23:34.575Z,100405.03
2019-02-08T23:28:38.603Z,100403.63
2019-02-08T23:33:42.654Z,100393.80
2019-02-08T23:38:46.696Z,100398.33
2019-02-08T23:43:50.806Z,100386.43
2019-02-08T23:48:54.843Z,100372.94
2019-02-08T23:53:58.897Z,100368.53
2019-02-08T23:59:03.052Z,100362.73
